Time;durP1;ratioP1;P1;durP2;ratioP2;P2;SDS_P1;SDS_P2;PMS_P1;PMS_P2;Temp;Humidity;BMP_temperature;BMP_pressure;BME280_temperature;BME280_humidity;BME280_pressure;Samples;Min_cycle;Max_cycle;Signal;HPM_P1;HPM_P2
2022/03/23 00:02:18;;;;;;;19.00;12.37;;;8.70;32.20;;;;;;6248945;22;20420;-87
2022/03/23 00:04:53;;;;;;;17.57;12.33;;;8.60;32.20;;;;;;6248857;22;20373;-86
2022/03/23 00:07:20;;;;;;;15.03;11.90;;;8.60;32.10;;;;;;6248576;22;20431;-86
2022/03/23 00:09:46;;;;;;;13.63;11.03;;;8.50;32.10;;;;;;6248522;22;20426;-87
2022/03/23 00:12:15;;;;;;;16.60;11.00;;;8.40;32.30;;;;;;6248493;22;20681;-86
2022/03/23 00:14:45;;;;;;;17.30;13.77;;;8.40;32.50;;;;;;6248889;22;20385;-86
2022/03/23 00:17:16;;;;;;;17.13;11.90;;;8.40;32.80;;;;;;6245714;22;20437;-86
2022/03/23 00:19:50;;;;;;;15.30;13.20;;;8.40;32.80;;;;;;6249039;22;20846;-87
2022/03/23 00:22:17;;;;;;;14.83;12.13;;;8.40;32.50;;;;;;6248712;22;20702;-86
2022/03/23 00:24:49;;;;;;;12.40;10.60;;;8.30;33.20;;;;;;6248254;22;20464;-86
2022/03/23 00:27:17;;;;;;;15.87;10.43;;;8.30;33.20;;;;;;6248720;22;20716;-86
2022/03/23 00:29:48;;;;;;;15.70;12.60;;;8.30;33.20;;;;;;6248931;22;20712;-86
2022/03/23 00:32:32;;;;;;;15.43;13.07;;;8.30;33.60;;;;;;6249151;22;20488;-86
2022/03/23 00:35:07;;;;;;;18.80;15.17;;;8.30;34.10;;;;;;6248600;22;20389;-86
2022/03/23 00:37:46;;;;;;;14.20;11.87;;;8.30;34.70;;;;;;6249208;22;20752;-86
2022/03/23 00:40:19;;;;;;;11.93;10.10;;;8.30;34.80;;;;;;6248660;22;20388;-87
2022/03/23 00:42:48;;;;;;;19.00;12.37;;;8.20;34.90;;;;;;6248687;22;20388;-87
2022/03/23 00:45:15;;;;;;;12.80;11.47;;;8.20;35.30;;;;;;6248635;22;20451;-87
2022/03/23 00:47:58;;;;;;;14.30;11.10;;;8.20;34.90;;;;;;6248413;22;20749;-86
2022/03/23 00:50:27;;;;;;;11.33;10.27;;;8.10;33.30;;;;;;6248447;22;20389;-87
2022/03/23 00:52:56;;;;;;;13.60;11.53;;;8.10;33.20;;;;;;6248007;22;20973;-86
2022/03/23 00:55:21;;;;;;;14.80;10.63;;;8.10;32.60;;;;;;6247592;22;20389;-87
2022/03/23 00:57:54;;;;;;;12.40;9.77;;;8.10;33.50;;;;;;6274714;22;20848;-87
2022/03/23 01:00:25;;;;;;;13.03;11.73;;;8.10;33.90;;;;;;6248634;22;20154;-87
2022/03/23 01:02:54;;;;;;;14.40;10.80;;;8.00;33.80;;;;;;6251989;22;20385;-87
2022/03/23 01:05:24;;;;;;;13.97;11.97;;;7.90;33.60;;;;;;6250764;22;20385;-87
2022/03/23 01:07:53;;;;;;;16.50;12.03;;;8.00;34.10;;;;;;6275227;22;20427;-87
2022/03/23 01:10:24;;;;;;;13.47;12.00;;;7.90;34.80;;;;;;6274585;22;20878;-87
2022/03/23 01:12:51;;;;;;;13.23;11.27;;;7.90;34.50;;;;;;6246972;22;20400;-87
2022/03/23 01:15:21;;;;;;;17.07;11.20;;;7.90;35.30;;;;;;6248820;22;20472;-87
2022/03/23 01:17:51;;;;;;;21.13;10.87;;;7.90;34.70;;;;;;6247853;22;20432;-87
2022/03/23 01:20:24;;;;;;;15.80;13.13;;;7.90;34.70;;;;;;6244300;22;20381;-87
2022/03/23 01:22:50;;;;;;;12.07;10.50;;;7.80;34.90;;;;;;6246029;22;20464;-87
2022/03/23 01:25:34;;;;;;;17.67;12.90;;;7.80;35.30;;;;;;6245818;22;20405;-87
2022/03/23 01:28:00;;;;;;;11.70;9.87;;;7.80;35.60;;;;;;6246752;22;20439;-87
2022/03/23 01:30:26;;;;;;;16.80;11.63;;;7.70;36.00;;;;;;6254457;22;20381;-87
2022/03/23 01:32:51;;;;;;;12.87;11.33;;;7.70;35.90;;;;;;6250896;22;20393;-87
2022/03/23 01:35:23;;;;;;;10.47;9.43;;;7.70;36.20;;;;;;6247636;22;20385;-87
2022/03/23 01:37:48;;;;;;;13.23;11.77;;;7.60;36.00;;;;;;6248064;22;20496;-87
2022/03/23 01:40:16;;;;;;;15.33;11.03;;;7.70;35.70;;;;;;6247867;22;20427;-87
2022/03/23 01:42:43;;;;;;;16.10;12.07;;;7.60;35.60;;;;;;6246731;22;20154;-87
2022/03/23 01:45:10;;;;;;;14.10;11.13;;;7.60;35.70;;;;;;6247071;22;20765;-87
2022/03/23 01:47:36;;;;;;;10.47;9.37;;;7.60;35.30;;;;;;6274365;22;20850;-87
2022/03/23 01:50:12;;;;;;;13.23;11.83;;;7.60;35.70;;;;;;6247104;22;20389;-87
2022/03/23 01:52:40;;;;;;;15.07;11.57;;;7.60;35.60;;;;;;6246613;22;20396;-87
2022/03/23 01:55:13;;;;;;;11.13;10.13;;;7.60;36.00;;;;;;6274007;22;20377;-87
2022/03/23 01:57:51;;;;;;;12.47;11.20;;;7.60;36.00;;;;;;6246207;22;20453;-87
2022/03/23 02:00:17;;;;;;;11.13;10.13;;;7.50;35.80;;;;;;6247762;22;20412;-87
2022/03/23 02:02:49;;;;;;;13.37;9.50;;;7.50;36.20;;;;;;6247036;22;20409;-87
2022/03/23 02:05:24;;;;;;;12.00;10.80;;;7.50;35.80;;;;;;6244961;22;20490;-87
2022/03/23 02:07:51;;;;;;;16.13;12.23;;;7.50;35.80;;;;;;6274147;22;20361;-87
2022/03/23 02:10:17;;;;;;;11.70;10.50;;;7.40;35.80;;;;;;6246556;22;20389;-87
2022/03/23 02:12:47;;;;;;;13.33;10.43;;;7.40;35.40;;;;;;6245062;22;20720;-87
2022/03/23 02:15:18;;;;;;;19.10;10.90;;;7.50;35.60;;;;;;6246558;22;20393;-87
2022/03/23 02:17:47;;;;;;;12.23;10.93;;;7.40;35.60;;;;;;6245747;22;20413;-87
2022/03/23 02:20:13;;;;;;;11.67;10.50;;;7.40;35.40;;;;;;6246246;22;20409;-81
2022/03/23 02:22:39;;;;;;;18.57;16.87;;;7.40;35.70;;;;;;6246321;22;20439;-86
2022/03/23 02:25:13;;;;;;;12.93;9.70;;;7.30;35.30;;;;;;6246487;22;20381;-86
2022/03/23 02:27:42;;;;;;;23.23;10.43;;;7.30;35.50;;;;;;6245829;22;20149;-86
2022/03/23 02:30:10;;;;;;;11.03;9.90;;;7.30;34.50;;;;;;6246902;22;20555;-87
2022/03/23 02:32:36;;;;;;;14.63;13.23;;;7.20;33.40;;;;;;6245692;22;20388;-86
2022/03/23 02:35:03;;;;;;;15.60;13.97;;;7.20;33.40;;;;;;6246154;22;20385;-86
2022/03/23 02:37:31;;;;;;;16.93;15.43;;;7.20;33.00;;;;;;6246585;22;20472;-86
2022/03/23 02:40:00;;;;;;;17.27;15.77;;;7.10;32.90;;;;;;6244540;22;20447;-87
2022/03/23 02:42:32;;;;;;;15.87;14.27;;;7.20;32.80;;;;;;6246778;22;20423;-86
2022/03/23 02:44:59;;;;;;;15.20;13.80;;;7.10;32.30;;;;;;6246179;22;20763;-86
2022/03/23 02:47:27;;;;;;;16.17;14.77;;;7.10;33.00;;;;;;6246865;22;20728;-86
2022/03/23 02:49:57;;;;;;;16.00;14.50;;;7.10;32.70;;;;;;6246495;22;20377;-87
2022/03/23 02:52:23;;;;;;;15.07;13.57;;;7.10;32.70;;;;;;6245952;22;20873;-87
2022/03/23 03:04:02;;;;;;;17.37;15.93;;;7.10;32.80;;;;;;6262083;22;20475;-86
2022/03/23 03:06:28;;;;;;;16.23;14.73;;;7.00;32.80;;;;;;6246488;22;20393;-86
2022/03/23 03:08:57;;;;;;;17.90;16.30;;;7.00;32.80;;;;;;6246117;22;20385;-86
2022/03/23 03:11:27;;;;;;;16.77;14.97;;;6.90;33.10;;;;;;6245883;22;20158;-86
2022/03/23 03:13:56;;;;;;;16.00;14.73;;;6.90;33.50;;;;;;6245222;22;20420;-86
2022/03/23 03:16:22;;;;;;;18.43;16.80;;;6.80;33.90;;;;;;6245139;22;20740;-86
2022/03/23 03:19:03;;;;;;;15.87;14.50;;;6.80;34.90;;;;;;6245620;22;20528;-86
2022/03/23 03:21:29;;;;;;;16.90;15.27;;;6.80;34.50;;;;;;6245703;22;20196;-86
2022/03/23 03:24:04;;;;;;;18.70;15.10;;;6.80;34.50;;;;;;6244868;22;20709;-87
2022/03/23 03:26:33;;;;;;;17.77;15.97;;;6.80;34.50;;;;;;6272327;22;20354;-86
2022/03/23 03:29:00;;;;;;;17.27;15.50;;;6.70;34.30;;;;;;6246330;22;20381;-87
2022/03/23 03:31:26;;;;;;;20.03;18.13;;;6.80;34.10;;;;;;6274615;22;20377;-86
2022/03/23 03:33:52;;;;;;;18.07;16.37;;;6.70;34.60;;;;;;6247861;22;20393;-86
2022/03/23 03:36:25;;;;;;;16.53;15.17;;;6.70;34.80;;;;;;6275036;22;20382;-86
2022/03/23 03:38:59;;;;;;;18.07;16.17;;;6.70;34.00;;;;;;6247258;22;20737;-86
2022/03/23 03:41:28;;;;;;;17.40;15.87;;;6.70;34.40;;;;;;6247478;22;20385;-86
2022/03/23 03:43:54;;;;;;;16.77;15.23;;;6.60;33.90;;;;;;6247606;22;20385;-87
2022/03/23 03:46:20;;;;;;;18.17;16.27;;;6.60;34.10;;;;;;6246402;22;20461;-86
2022/03/23 03:48:49;;;;;;;15.53;14.00;;;6.50;34.20;;;;;;6246597;22;20813;-86
2022/03/23 03:51:19;;;;;;;15.03;13.70;;;6.50;33.80;;;;;;6246263;22;20405;-86
2022/03/23 03:53:56;;;;;;;18.60;16.80;;;6.50;33.60;;;;;;6246420;22;20392;-86
2022/03/23 03:56:29;;;;;;;17.33;15.73;;;6.50;33.20;;;;;;6249844;22;20384;-86
2022/03/23 03:58:58;;;;;;;15.20;13.80;;;6.40;33.60;;;;;;6251757;22;20504;-86
2022/03/23 04:01:26;;;;;;;18.00;16.30;;;6.40;33.90;;;;;;6247040;22;20390;-86
2022/03/23 04:03:57;;;;;;;28.80;17.10;;;6.40;34.20;;;;;;6246686;22;20757;-86
2022/03/23 04:06:29;;;;;;;20.07;18.10;;;6.30;34.50;;;;;;6274462;22;20427;-86
2022/03/23 04:09:07;;;;;;;20.77;17.70;;;6.30;34.70;;;;;;6247594;22;20389;-86
2022/03/23 04:11:34;;;;;;;20.30;18.50;;;6.30;34.60;;;;;;6247290;22;20424;-86
2022/03/23 04:14:06;;;;;;;15.77;14.37;;;6.30;34.90;;;;;;6246908;22;20480;-86
2022/03/23 04:16:36;;;;;;;20.43;18.60;;;6.30;34.80;;;;;;6248206;22;20381;-86
2022/03/23 04:19:06;;;;;;;22.33;19.17;;;6.30;34.50;;;;;;6247857;22;20745;-86
2022/03/23 04:21:34;;;;;;;18.50;16.80;;;6.30;34.30;;;;;;6248216;22;20386;-86
2022/03/23 04:24:02;;;;;;;17.97;16.07;;;6.30;35.00;;;;;;6246454;22;20870;-85
2022/03/23 04:26:28;;;;;;;16.80;15.30;;;6.30;35.40;;;;;;6248433;22;20732;-86
2022/03/23 04:28:54;;;;;;;19.33;17.63;;;6.30;35.90;;;;;;6247786;22;20480;-84
2022/03/23 04:31:22;;;;;;;16.37;14.90;;;6.20;34.30;;;;;;6248234;22;20432;-84
2022/03/23 04:33:48;;;;;;;16.97;15.40;;;6.20;35.40;;;;;;6247733;22;20211;-85
2022/03/23 04:36:14;;;;;;;19.80;15.90;;;6.20;34.70;;;;;;6248686;22;20431;-85
2022/03/23 04:38:40;;;;;;;17.57;15.93;;;6.20;34.40;;;;;;6248383;22;20736;-85
2022/03/23 04:41:06;;;;;;;17.73;15.70;;;6.20;34.50;;;;;;6247823;22;20389;-85
2022/03/23 04:43:34;;;;;;;16.43;15.13;;;6.20;34.80;;;;;;6248087;22;20151;-85
2022/03/23 04:46:00;;;;;;;18.40;16.73;;;6.10;34.70;;;;;;6248847;22;20389;-85
2022/03/23 04:48:26;;;;;;;18.90;17.33;;;6.10;35.00;;;;;;6248208;22;20412;-85
2022/03/23 04:50:52;;;;;;;17.73;16.23;;;6.10;35.00;;;;;;6248557;22;20861;-84
2022/03/23 04:53:18;;;;;;;19.77;18.13;;;6.10;35.80;;;;;;6248757;22;20440;-85
2022/03/23 04:55:44;;;;;;;20.27;18.17;;;6.10;35.70;;;;;;6248302;22;20866;-85
2022/03/23 04:58:10;;;;;;;20.63;18.83;;;6.10;36.50;;;;;;6275904;22;20547;-85
2022/03/23 05:00:35;;;;;;;19.60;17.60;;;6.00;37.10;;;;;;6248647;22;20440;-85
2022/03/23 05:03:04;;;;;;;18.33;16.13;;;6.10;37.10;;;;;;6248368;22;20165;-84
2022/03/23 05:05:30;;;;;;;19.77;17.83;;;6.10;37.30;;;;;;6248585;22;20181;-84
2022/03/23 05:07:59;;;;;;;20.17;18.33;;;6.00;37.50;;;;;;6248798;22;20389;-84
2022/03/23 05:10:25;;;;;;;19.03;17.27;;;6.00;38.00;;;;;;6248331;22;20438;-84
2022/03/23 05:12:51;;;;;;;19.73;18.07;;;5.90;38.00;;;;;;6248529;22;20443;-85
2022/03/23 05:15:17;;;;;;;19.90;18.20;;;5.90;38.10;;;;;;6248746;22;20194;-85
2022/03/23 05:17:46;;;;;;;20.07;18.27;;;5.80;38.40;;;;;;6248444;22;20503;-85
2022/03/23 05:20:14;;;;;;;17.50;15.77;;;5.80;38.50;;;;;;6248707;22;20485;-85
2022/03/23 05:22:40;;;;;;;18.47;16.70;;;5.80;38.10;;;;;;6248741;22;20412;-85
2022/03/23 05:25:06;;;;;;;20.20;18.50;;;5.90;38.20;;;;;;6276372;22;20381;-84
2022/03/23 05:27:37;;;;;;;19.90;18.17;;;5.80;38.30;;;;;;6249217;22;20392;-85
2022/03/23 05:30:07;;;;;;;20.90;19.00;;;5.80;37.90;;;;;;6249123;22;20393;-84
2022/03/23 05:32:33;;;;;;;17.87;16.03;;;5.80;38.20;;;;;;6249069;22;20423;-85
2022/03/23 05:34:58;;;;;;;17.47;15.87;;;5.80;37.80;;;;;;6249041;22;20401;-82
2022/03/23 05:37:25;;;;;;;19.10;17.10;;;5.70;37.90;;;;;;6275804;22;20417;-84
2022/03/23 05:39:51;;;;;;;20.07;18.27;;;5.70;37.60;;;;;;6275890;22;20403;-84
2022/03/23 05:42:17;;;;;;;18.10;16.50;;;5.70;37.40;;;;;;6248544;22;20382;-83
2022/03/23 05:44:45;;;;;;;20.57;18.60;;;5.70;37.60;;;;;;6248470;22;20212;-84
2022/03/23 05:47:11;;;;;;;23.23;20.80;;;5.70;37.40;;;;;;6248987;22;20205;-84
2022/03/23 05:49:39;;;;;;;20.35;18.23;;;5.70;37.50;;;;;;6248087;22;20750;-84
2022/03/23 05:52:07;;;;;;;15.57;14.10;;;5.70;36.90;;;;;;6248320;22;20171;-84
2022/03/23 05:54:34;;;;;;;19.80;17.90;;;5.70;37.70;;;;;;6248967;22;20708;-84
2022/03/23 05:57:02;;;;;;;20.80;18.70;;;5.80;37.80;;;;;;6248363;22;20393;-84
2022/03/23 05:59:30;;;;;;;19.13;17.27;;;5.80;37.40;;;;;;6248837;22;20392;-84
2022/03/23 06:02:00;;;;;;;21.30;19.40;;;5.80;37.50;;;;;;6247299;22;20381;-84
2022/03/23 06:04:26;;;;;;;20.93;18.70;;;5.80;37.50;;;;;;6245213;22;20472;-84
2022/03/23 06:06:52;;;;;;;21.30;19.30;;;5.70;37.10;;;;;;6247866;22;20389;-84
2022/03/23 06:09:19;;;;;;;19.57;17.57;;;5.80;37.00;;;;;;6248062;22;20401;-83
2022/03/23 06:11:45;;;;;;;21.50;19.50;;;5.60;36.80;;;;;;6248578;22;20385;-84
2022/03/23 06:14:19;;;;;;;23.83;21.40;;;5.70;37.00;;;;;;6248706;22;20880;-84
2022/03/23 06:16:47;;;;;;;20.70;18.90;;;5.70;37.90;;;;;;6249019;22;20853;-83
2022/03/23 06:19:14;;;;;;;21.50;19.50;;;5.80;36.90;;;;;;6249396;22;20904;-84
2022/03/23 06:21:41;;;;;;;22.90;20.60;;;5.70;36.90;;;;;;6249760;22;20385;-83
2022/03/23 06:24:08;;;;;;;23.37;20.93;;;5.80;37.00;;;;;;6248498;22;20386;-84
2022/03/23 06:26:34;;;;;;;21.53;19.27;;;5.60;37.60;;;;;;6248877;22;20392;-83
2022/03/23 06:28:59;;;;;;;24.30;21.87;;;5.80;38.10;;;;;;6248673;22;20405;-83
2022/03/23 06:31:25;;;;;;;22.60;20.33;;;5.80;37.90;;;;;;6247847;22;20999;-83
2022/03/23 06:33:51;;;;;;;23.63;21.27;;;5.80;37.40;;;;;;6247912;22;20188;-83
2022/03/23 06:36:17;;;;;;;23.13;20.83;;;5.90;37.40;;;;;;6247829;22;20446;-83
2022/03/23 06:38:42;;;;;;;23.10;20.90;;;6.00;38.30;;;;;;6247587;22;20224;-83
2022/03/23 06:41:09;;;;;;;23.33;21.13;;;6.10;38.20;;;;;;6248499;22;20160;-84
2022/03/23 06:43:35;;;;;;;35.53;21.73;;;6.10;36.50;;;;;;6248376;22;20381;-84
2022/03/23 06:46:01;;;;;;;24.27;20.60;;;6.00;36.70;;;;;;6247532;22;20708;-84
2022/03/23 06:48:28;;;;;;;23.77;21.40;;;6.10;36.60;;;;;;6248097;22;20187;-84
2022/03/23 06:50:57;;;;;;;24.40;22.00;;;6.20;36.80;;;;;;6273268;22;20862;-82
2022/03/23 06:53:23;;;;;;;23.77;21.67;;;6.10;36.70;;;;;;6247459;22;20420;-83
2022/03/23 06:55:55;;;;;;;23.30;20.37;;;6.30;36.90;;;;;;6247901;22;20861;-82
2022/03/23 06:58:23;;;;;;;21.80;19.27;;;6.40;36.40;;;;;;6248594;22;20608;-83
2022/03/23 07:01:00;;;;;;;26.73;20.97;;;6.40;35.20;;;;;;6246599;22;20439;-84
2022/03/23 07:03:27;;;;;;;24.97;22.27;;;6.40;36.30;;;;;;6248341;22;20857;-85
2022/03/23 07:05:53;;;;;;;23.77;21.47;;;6.40;35.20;;;;;;6249600;22;20668;-85
2022/03/23 07:11:04;;;;;;;26.40;21.17;;;6.60;36.20;;;;;;6277593;22;20162;-86
2022/03/23 07:13:30;;;;;;;25.93;23.23;;;6.60;35.30;;;;;;6249277;22;20373;-87
2022/03/23 07:15:57;;;;;;;21.30;16.83;;;6.70;36.10;;;;;;6249596;22;20723;-87
2022/03/23 07:18:23;;;;;;;13.80;12.07;;;6.70;35.40;;;;;;6249496;22;20429;-87
2022/03/23 07:20:49;;;;;;;17.67;11.40;;;6.70;35.00;;;;;;6249178;22;20455;-87
2022/03/23 07:23:15;;;;;;;13.60;12.20;;;6.80;34.90;;;;;;6224633;22;20389;-87
2022/03/23 07:25:40;;;;;;;18.00;12.50;;;6.90;34.00;;;;;;6250627;22;20389;-87
2022/03/23 07:28:06;;;;;;;25.77;23.23;;;6.90;34.70;;;;;;6250464;22;20182;-87
2022/03/23 07:30:35;;;;;;;15.03;12.63;;;6.80;34.10;;;;;;6250340;22;20505;-87
2022/03/23 07:33:02;;;;;;;19.77;13.30;;;6.90;35.00;;;;;;6250605;22;20498;-87
2022/03/23 07:35:28;;;;;;;25.47;12.70;;;6.90;35.00;;;;;;6250475;22;20716;-87
2022/03/23 07:37:54;;;;;;;20.00;12.67;;;7.00;35.10;;;;;;6250043;22;20432;-87
2022/03/23 07:40:20;;;;;;;13.57;12.00;;;7.10;35.20;;;;;;6250237;22;20377;-86
2022/03/23 07:42:45;;;;;;;18.30;12.83;;;7.10;35.40;;;;;;6250806;22;20153;-87
2022/03/23 07:45:11;;;;;;;32.93;14.70;;;7.20;36.90;;;;;;6250456;22;20557;-90
2022/03/23 07:47:38;;;;;;;18.23;14.30;;;7.30;36.30;;;;;;6249178;22;20226;-89
2022/03/23 07:50:05;;;;;;;16.50;13.00;;;7.30;36.10;;;;;;6249949;22;20443;-89
2022/03/23 07:52:31;;;;;;;17.03;15.20;;;7.40;35.40;;;;;;6248858;22;20796;-89
2022/03/23 07:54:57;;;;;;;17.37;13.67;;;7.50;35.10;;;;;;6249325;22;20803;-89
2022/03/23 07:57:23;;;;;;;18.23;14.03;;;7.50;34.10;;;;;;6250092;22;20421;-89
2022/03/23 07:59:49;;;;;;;18.87;14.87;;;7.60;33.70;;;;;;6249343;22;20415;-89
2022/03/23 08:02:15;;;;;;;17.70;15.50;;;7.70;33.30;;;;;;6249635;22;20159;-89
2022/03/23 08:04:40;;;;;;;20.07;14.10;;;7.80;32.30;;;;;;6249954;22;20381;-89
2022/03/23 08:07:09;;;;;;;14.30;12.80;;;7.90;33.60;;;;;;6249556;22;20143;-89
2022/03/23 08:09:38;;;;;;;19.73;14.47;;;7.90;34.80;;;;;;6249766;22;20929;-89
2022/03/23 08:12:05;;;;;;;19.20;14.57;;;8.00;33.60;;;;;;6249835;22;20487;-89
2022/03/23 08:14:30;;;;;;;18.70;14.10;;;8.20;32.60;;;;;;6249244;22;20411;-89
2022/03/23 08:16:56;;;;;;;15.57;13.70;;;8.20;33.30;;;;;;6249046;22;20389;-90
2022/03/23 08:19:22;;;;;;;26.13;16.93;;;8.30;32.50;;;;;;6249615;22;20461;-89
2022/03/23 08:21:50;;;;;;;22.07;15.27;;;8.40;32.70;;;;;;6250444;22;20246;-89
2022/03/23 08:24:16;;;;;;;19.93;14.43;;;8.50;32.70;;;;;;6250660;22;20722;-89
2022/03/23 08:26:42;;;;;;;18.33;14.10;;;8.50;31.90;;;;;;6250521;22;20385;-89
2022/03/23 08:29:08;;;;;;;21.30;14.33;;;8.50;31.20;;;;;;6249388;22;20150;-89
2022/03/23 08:31:35;;;;;;;16.63;14.53;;;8.60;32.10;;;;;;6249878;22;20392;-89
2022/03/23 08:34:01;;;;;;;17.17;15.47;;;8.70;32.80;;;;;;6249052;22;20409;-89
2022/03/23 08:36:27;;;;;;;23.57;16.83;;;8.80;31.40;;;;;;6248940;22;20392;-89
2022/03/23 08:38:53;;;;;;;20.33;15.53;;;8.90;31.30;;;;;;6249054;22;20504;-89
2022/03/23 08:41:19;;;;;;;24.63;16.27;;;8.90;31.50;;;;;;6249779;22;20464;-89
2022/03/23 08:43:45;;;;;;;26.10;22.73;;;9.00;30.50;;;;;;6251235;22;20884;-89
2022/03/23 08:46:13;;;;;;;20.70;16.67;;;9.10;30.20;;;;;;6263687;22;20370;-88
2022/03/23 08:48:40;;;;;;;18.53;14.87;;;9.20;31.80;;;;;;6253580;22;20462;-89
2022/03/23 08:51:06;;;;;;;26.30;16.93;;;9.30;29.90;;;;;;6251725;22;20528;-89
2022/03/23 08:53:33;;;;;;;22.77;16.93;;;9.50;28.80;;;;;;6250629;22;20390;-90
2022/03/23 08:55:59;;;;;;;17.97;16.10;;;9.70;28.90;;;;;;6250811;22;20381;-90
2022/03/23 08:58:25;;;;;;;18.93;16.20;;;9.70;28.60;;;;;;6249473;22;20757;-89
2022/03/23 09:00:53;;;;;;;18.27;16.37;;;9.80;28.50;;;;;;6249533;22;20377;-89
2022/03/23 09:03:19;;;;;;;21.17;15.57;;;9.90;28.40;;;;;;6248978;22;20378;-90
2022/03/23 09:05:45;;;;;;;17.40;15.73;;;10.10;27.00;;;;;;6249775;22;20471;-89
2022/03/23 09:08:11;;;;;;;26.10;16.60;;;10.20;26.80;;;;;;6249552;22;20151;-89
2022/03/23 09:10:36;;;;;;;17.47;14.03;;;10.20;27.10;;;;;;6249473;22;20230;-90
2022/03/23 09:13:03;;;;;;;21.70;17.53;;;10.30;27.50;;;;;;6248824;22;20405;-89
2022/03/23 09:15:30;;;;;;;24.33;16.00;;;10.40;26.90;;;;;;6249426;22;20162;-89
2022/03/23 09:18:03;;;;;;;18.17;15.40;;;10.50;26.70;;;;;;6248760;22;20464;-89
2022/03/23 09:20:29;;;;;;;22.07;18.17;;;10.60;26.80;;;;;;6249258;22;20386;-89
2022/03/23 09:22:57;;;;;;;18.90;15.33;;;10.70;26.50;;;;;;6248657;22;20393;-89
2022/03/23 09:25:24;;;;;;;23.23;17.20;;;10.80;26.20;;;;;;6249016;22;20713;-90
2022/03/23 09:27:51;;;;;;;25.50;22.90;;;10.90;26.30;;;;;;6248506;22;20771;-88
2022/03/23 09:30:17;;;;;;;26.00;16.77;;;10.90;26.20;;;;;;6276133;22;20379;-89
2022/03/23 09:32:46;;;;;;;16.60;14.97;;;11.00;26.40;;;;;;6249537;22;20388;-89
2022/03/23 09:35:14;;;;;;;26.47;23.77;;;11.10;24.20;;;;;;6248319;22;20479;-88
2022/03/23 09:37:50;;;;;;;24.33;18.93;;;11.20;24.60;;;;;;6248419;22;20475;-89
2022/03/23 09:40:30;;;;;;;18.13;16.23;;;11.30;24.30;;;;;;6248952;22;20373;-88
2022/03/23 09:42:57;;;;;;;22.27;16.67;;;11.40;24.60;;;;;;6249468;22;20381;-88
2022/03/23 09:47:59;;;;;;;18.47;13.93;;;11.60;23.70;;;;;;6286405;22;20372;-88
2022/03/23 09:50:31;;;;;;;13.53;12.30;;;11.70;22.30;;;;;;6249027;22;20428;-88
2022/03/23 09:52:58;;;;;;;20.53;18.53;;;11.90;17.50;;;;;;6276028;22;20396;-88
2022/03/23 09:55:24;;;;;;;18.97;17.13;;;11.90;18.10;;;;;;6275957;22;20370;-88
2022/03/23 09:57:57;;;;;;;13.37;11.93;;;12.00;17.90;;;;;;6248207;22;20429;-88
2022/03/23 10:00:29;;;;;;;14.97;13.50;;;12.10;18.80;;;;;;6248820;22;20383;-88
2022/03/23 10:02:58;;;;;;;21.80;14.80;;;12.20;18.90;;;;;;6248552;22;20778;-88
2022/03/23 10:06:12;;;;;;;14.73;13.13;;;12.40;18.60;;;;;;6248612;22;20416;-89
2022/03/23 10:09:07;;;;;;;14.87;13.33;;;12.40;17.80;;;;;;6247349;22;20423;-90
2022/03/23 10:12:35;;;;;;;16.10;13.50;;;12.50;18.70;;;;;;6275979;22;20735;-79
2022/03/23 10:15:25;;;;;;;14.63;13.23;;;12.60;16.80;;;;;;6247665;22;20393;-81
2022/03/23 10:17:58;;;;;;;13.70;12.13;;;12.70;16.80;;;;;;6247613;22;20425;-81
2022/03/23 10:20:24;;;;;;;22.63;20.37;;;13.00;15.50;;;;;;6247562;22;20709;-81
2022/03/23 10:22:52;;;;;;;14.27;12.20;;;13.00;16.00;;;;;;6247395;22;20849;-81
2022/03/23 10:25:29;;;;;;;17.53;15.10;;;13.20;15.70;;;;;;6247992;22;20389;-81
2022/03/23 10:27:56;;;;;;;14.87;13.03;;;13.40;15.70;;;;;;6247890;22;20746;-81
2022/03/23 10:30:35;;;;;;;13.63;12.33;;;13.60;14.80;;;;;;6248618;22;20480;-81
2022/03/23 10:33:01;;;;;;;18.17;16.37;;;13.70;15.30;;;;;;6248543;22;20752;-81
2022/03/23 10:35:38;;;;;;;15.27;13.37;;;13.70;14.60;;;;;;6275009;22;20829;-81
2022/03/23 10:38:23;;;;;;;14.20;12.97;;;13.90;14.40;;;;;;6248357;22;20424;-81
2022/03/23 10:40:51;;;;;;;13.60;12.40;;;13.90;14.50;;;;;;6249479;22;20420;-81
2022/03/23 10:43:23;;;;;;;13.00;11.80;;;14.00;14.00;;;;;;6249735;22;20389;-81
2022/03/23 10:45:49;;;;;;;14.57;13.47;;;14.00;13.80;;;;;;6249968;22;20481;-81
2022/03/23 10:48:17;;;;;;;14.80;13.37;;;14.10;13.30;;;;;;6249575;22;20425;-81
2022/03/23 10:50:56;;;;;;;13.90;12.60;;;14.10;13.50;;;;;;6249500;22;20382;-81
2022/03/23 10:53:31;;;;;;;12.63;11.67;;;14.20;13.70;;;;;;6250142;22;20753;-81
2022/03/23 10:56:00;;;;;;;14.33;13.13;;;14.20;13.20;;;;;;6249548;22;20385;-81
2022/03/23 10:58:27;;;;;;;13.70;12.50;;;14.20;13.40;;;;;;6249511;22;20425;-81
2022/03/23 11:01:05;;;;;;;14.57;13.37;;;14.20;13.20;;;;;;6249632;22;20772;-81
2022/03/23 11:03:36;;;;;;;12.87;11.67;;;14.20;12.30;;;;;;6249394;22;20392;-81
2022/03/23 11:06:02;;;;;;;14.20;13.00;;;14.20;12.20;;;;;;6249581;22;20419;-81
2022/03/23 11:08:27;;;;;;;13.17;11.87;;;14.30;12.50;;;;;;6249516;22;20779;-80
2022/03/23 11:16:47;;;;;;;13.30;12.00;;;14.60;11.00;;;;;;6257708;22;20423;-80
2022/03/23 11:19:24;;;;;;;12.70;11.53;;;14.60;11.50;;;;;;6249293;22;20763;-79
2022/03/23 11:22:09;;;;;;;13.87;12.50;;;14.70;11.00;;;;;;6249426;22;20379;-80
2022/03/23 11:25:29;;;;;;;14.30;11.73;;;14.90;9.60;;;;;;6249688;22;20388;-81
2022/03/23 11:28:39;;;;;;;;;;;;;;;;;;;;;
2022/03/23 11:31:10;;;;;;;12.73;11.63;;;14.80;11.00;;;;;;6270134;22;20464;-80
2022/03/23 11:33:38;;;;;;;14.67;13.37;;;14.80;9.60;;;;;;6248999;22;20416;-80
2022/03/23 11:36:09;;;;;;;14.07;12.83;;;14.80;9.50;;;;;;6250208;22;20717;-80
2022/03/23 11:38:37;;;;;;;12.03;11.13;;;14.80;9.50;;;;;;6250573;22;20427;-81
2022/03/23 11:41:03;;;;;;;14.10;12.80;;;14.90;9.40;;;;;;6249876;22;20382;-80
2022/03/23 11:43:37;;;;;;;15.90;14.40;;;15.00;9.50;;;;;;6276625;22;20374;-80
2022/03/23 11:46:04;;;;;;;16.47;12.80;;;15.00;9.80;;;;;;6249462;22;20862;-80
2022/03/23 11:48:54;;;;;;;14.47;12.90;;;15.10;8.80;;;;;;6249619;22;20396;-80
2022/03/23 11:51:40;;;;;;;15.43;13.17;;;15.10;9.70;;;;;;6249183;22;20413;-80
2022/03/23 11:54:12;;;;;;;11.73;10.73;;;15.10;9.50;;;;;;6249358;22;20388;-80
2022/03/23 11:56:58;;;;;;;14.37;12.27;;;15.20;8.40;;;;;;6249077;22;20401;-80
2022/03/23 11:59:28;;;;;;;12.37;11.17;;;15.20;7.90;;;;;;6249084;22;20432;-81
2022/03/23 12:01:57;;;;;;;11.57;10.20;;;15.20;7.60;;;;;;6248274;22;20386;-81
2022/03/23 12:04:25;;;;;;;12.50;10.80;;;15.20;8.30;;;;;;6249202;22;20861;-81
2022/03/23 12:07:05;;;;;;;15.00;12.67;;;15.20;8.40;;;;;;6249772;22;20850;-80
2022/03/23 12:09:44;;;;;;;13.27;12.03;;;15.30;9.90;;;;;;6249736;22;20385;-80
2022/03/23 12:12:29;;;;;;;11.90;10.80;;;15.40;9.30;;;;;;6252447;22;20384;-84
2022/03/23 12:15:23;;;;;;;12.50;11.50;;;15.60;7.20;;;;;;6254147;22;20861;-88
2022/03/23 12:18:25;;;;;;;12.10;11.07;;;15.80;8.10;;;;;;6255771;22;20516;-88
2022/03/23 12:20:53;;;;;;;14.27;11.10;;;15.90;8.50;;;;;;6262588;22;20416;-88
2022/03/23 12:23:36;;;;;;;12.90;12.00;;;16.10;8.10;;;;;;6250865;22;20449;-80
2022/03/23 12:26:38;;;;;;;12.30;11.17;;;16.20;7.90;;;;;;6248843;22;20378;-80
2022/03/23 12:29:18;;;;;;;12.93;11.73;;;16.30;7.10;;;;;;6213568;22;20385;-88
2022/03/23 12:31:44;;;;;;;13.13;11.80;;;16.30;7.70;;;;;;6249465;22;20415;-88
2022/03/23 12:34:18;;;;;;;14.70;12.63;;;16.30;7.70;;;;;;6248662;22;20385;-80
2022/03/23 12:36:56;;;;;;;10.87;9.90;;;16.30;8.50;;;;;;6248730;22;20462;-79
2022/03/23 12:39:36;;;;;;;12.27;11.17;;;16.40;6.20;;;;;;6249067;22;20724;-79
2022/03/23 12:42:17;;;;;;;12.53;11.43;;;16.60;6.80;;;;;;6248955;22;20443;-79
2022/03/23 12:45:03;;;;;;;16.70;11.00;;;16.60;6.80;;;;;;6247404;22;20384;-79
2022/03/23 12:47:31;;;;;;;13.07;11.90;;;16.60;7.10;;;;;;6248806;22;20384;-80
2022/03/23 12:58:34;;;;;;;14.17;12.80;;;16.90;7.10;;;;;;6275748;22;20421;-80
2022/03/23 13:01:13;;;;;;;14.07;12.87;;;16.90;7.90;;;;;;6248601;22;20413;-80
2022/03/23 13:03:39;;;;;;;16.17;14.10;;;16.90;8.00;;;;;;6248206;22;20768;-80
2022/03/23 13:06:07;;;;;;;12.90;11.60;;;16.80;8.40;;;;;;6248764;22;20386;-80
2022/03/23 13:08:33;;;;;;;13.93;12.63;;;16.80;7.60;;;;;;6248604;22;20158;-79
2022/03/23 13:11:06;;;;;;;12.30;11.20;;;16.80;7.10;;;;;;6247999;22;20397;-79
2022/03/23 13:13:36;;;;;;;14.50;13.07;;;16.80;7.60;;;;;;6248611;22;20396;-79
2022/03/23 13:16:03;;;;;;;14.37;12.67;;;16.70;6.90;;;;;;6248369;22;20382;-79
2022/03/23 13:18:35;;;;;;;14.10;11.87;;;16.70;6.10;;;;;;6247539;22;20424;-78
2022/03/23 13:21:01;;;;;;;13.30;12.10;;;16.80;5.60;;;;;;6248913;22;20409;-79